Time;durP1;ratioP1;P1;durP2;ratioP2;P2;SDS_P1;SDS_P2;PMS_P1;PMS_P2;Temp;Humidity;BMP_temperature;BMP_pressure;BME280_temperature;BME280_humidity;BME280_pressure;Samples;Min_cycle;Max_cycle;Signal;HPM_P1;HPM_P2
2021/08/20 00:00:05;;;;;;;8.77;3.25;;;;;;;13.73;100.00;101271.59;5008114;28;20056;-75
2021/08/20 00:02:39;;;;;;;7.25;3.30;;;;;;;13.67;100.00;101269.56;4989444;28;20040;-74
2021/08/20 00:05:06;;;;;;;7.20;3.22;;;;;;;13.68;100.00;101267.78;4951820;28;20117;-76
2021/08/20 00:07:32;;;;;;;12.65;3.40;;;;;;;13.68;100.00;101265.97;4989447;28;20061;-76
2021/08/20 00:09:58;;;;;;;6.80;3.60;;;;;;;13.71;100.00;101263.03;4971092;28;20062;-76
2021/08/20 00:12:23;;;;;;;8.07;3.78;;;;;;;13.72;100.00;101267.28;4976732;28;20041;-75
2021/08/20 00:14:50;;;;;;;7.97;3.35;;;;;;;13.67;100.00;101272.19;4986173;28;20041;-75
2021/08/20 00:17:16;;;;;;;6.75;3.70;;;;;;;13.66;100.00;101280.28;4959594;28;20129;-75
2021/08/20 00:19:41;;;;;;;6.93;3.60;;;;;;;13.57;100.00;101274.09;4968208;28;20062;-76
2021/08/20 00:22:08;;;;;;;7.85;3.38;;;;;;;13.53;100.00;101281.50;4974810;28;20033;-76
2021/08/20 00:24:35;;;;;;;8.30;3.10;;;;;;;13.48;100.00;101280.28;4996810;28;20041;-77
2021/08/20 00:27:11;;;;;;;8.57;3.05;;;;;;;13.37;100.00;101274.28;4980366;28;20038;-77
2021/08/20 00:29:37;;;;;;;8.27;3.25;;;;;;;13.33;100.00;101264.19;4962412;28;20036;-75
2021/08/20 00:32:03;;;;;;;8.25;3.05;;;;;;;13.30;100.00;101262.69;4965885;28;20042;-76
2021/08/20 00:34:31;;;;;;;9.75;3.83;;;;;;;13.29;100.00;101268.91;4972728;28;20031;-77
2021/08/20 00:36:57;;;;;;;5.90;3.00;;;;;;;13.31;100.00;101264.34;4965763;28;20045;-75
2021/08/20 00:39:23;;;;;;;7.78;3.50;;;;;;;13.33;100.00;101274.72;4964109;28;20034;-77
2021/08/20 00:41:49;;;;;;;7.57;3.80;;;;;;;13.35;100.00;101264.88;4980855;28;20042;-76
2021/08/20 00:44:14;;;;;;;11.48;3.70;;;;;;;13.33;100.00;101262.38;4971229;28;20061;-76
2021/08/20 00:46:42;;;;;;;7.32;3.47;;;;;;;13.38;100.00;101264.56;4974763;28;20093;-76
2021/08/20 00:49:15;;;;;;;9.00;3.90;;;;;;;13.38;100.00;101265.41;4973314;28;20026;-77
2021/08/20 00:51:41;;;;;;;8.93;3.88;;;;;;;13.39;100.00;101263.56;4957411;28;20035;-76
2021/08/20 00:54:12;;;;;;;8.68;3.10;;;;;;;13.45;100.00;101270.91;4997785;28;20043;-75
2021/08/20 00:56:43;;;;;;;10.30;4.15;;;;;;;13.43;100.00;101273.69;4961258;28;20185;-76
2021/08/20 00:59:13;;;;;;;8.60;3.80;;;;;;;13.42;100.00;101269.38;4957742;28;20034;-76
2021/08/20 01:01:39;;;;;;;10.63;3.90;;;;;;;13.33;100.00;101258.91;4976141;28;20034;-76
2021/08/20 01:04:05;;;;;;;7.97;3.75;;;;;;;13.36;100.00;101262.09;4992212;28;20035;-74
2021/08/20 01:06:32;;;;;;;9.75;3.70;;;;;;;13.33;100.00;101267.66;4977081;28;20520;-75
2021/08/20 01:08:59;;;;;;;7.82;3.53;;;;;;;13.36;100.00;101272.63;4983925;28;20030;-75
2021/08/20 01:11:28;;;;;;;9.05;4.00;;;;;;;13.35;100.00;101278.03;4991276;28;20546;-75
2021/08/20 01:13:54;;;;;;;7.72;4.45;;;;;;;13.30;100.00;101265.34;5002417;28;20035;-76
2021/08/20 01:16:20;;;;;;;6.88;4.22;;;;;;;13.33;100.00;101264.19;4993829;28;20076;-75
2021/08/20 01:18:47;;;;;;;8.55;4.38;;;;;;;13.30;100.00;101264.44;4986130;28;20066;-74
2021/08/20 01:21:20;;;;;;;12.60;4.20;;;;;;;13.28;100.00;101263.78;4973835;28;20042;-75
2021/08/20 01:23:53;;;;;;;13.32;4.38;;;;;;;13.22;100.00;101257.31;4976268;28;20045;-76
2021/08/20 01:26:20;;;;;;;11.50;4.07;;;;;;;13.23;100.00;101270.34;4988119;28;20393;-77
2021/08/20 01:28:46;;;;;;;7.95;3.78;;;;;;;13.22;100.00;101270.47;4972644;28;20509;-75
2021/08/20 01:31:14;;;;;;;10.70;4.10;;;;;;;13.17;100.00;101264.84;4953048;28;20034;-76
2021/08/20 01:33:40;;;;;;;7.35;4.30;;;;;;;13.14;100.00;101265.16;4959241;28;20037;-76
2021/08/20 01:36:10;;;;;;;7.78;3.90;;;;;;;13.17;100.00;101268.31;4959631;28;20072;-75
2021/08/20 01:38:55;;;;;;;6.53;4.15;;;;;;;13.16;100.00;101263.19;4973574;28;20030;-74
2021/08/20 01:41:24;;;;;;;13.30;4.50;;;;;;;13.13;100.00;101261.69;4991024;28;20053;-76
2021/08/20 01:43:50;;;;;;;9.00;4.50;;;;;;;13.10;100.00;101261.97;4970419;28;20458;-75
2021/08/20 01:46:16;;;;;;;9.40;4.90;;;;;;;13.11;100.00;101261.03;4970883;28;20041;-75
2021/08/20 01:48:47;;;;;;;10.73;4.40;;;;;;;13.14;100.00;101260.69;4970290;28;20042;-76
2021/08/20 01:51:17;;;;;;;8.00;4.55;;;;;;;13.14;100.00;101257.25;4980800;28;20627;-75
2021/08/20 01:53:44;;;;;;;13.43;4.72;;;;;;;13.13;100.00;101251.16;4989552;28;20026;-76
2021/08/20 01:56:24;;;;;;;8.80;4.88;;;;;;;13.16;100.00;101252.66;4976650;28;20042;-76
2021/08/20 01:58:51;;;;;;;7.28;3.95;;;;;;;13.17;100.00;101249.88;4973636;28;20026;-76
2021/08/20 02:01:17;;;;;;;13.30;4.45;;;;;;;13.21;100.00;101250.41;4991813;28;20845;-76
2021/08/20 02:03:43;;;;;;;11.93;4.60;;;;;;;13.19;100.00;101255.00;4976363;28;20093;-76
2021/08/20 02:06:10;;;;;;;9.13;4.28;;;;;;;13.17;100.00;101244.59;4975397;28;20137;-77
2021/08/20 02:08:41;;;;;;;9.65;4.13;;;;;;;13.18;100.00;101254.16;4965204;28;20081;-77
2021/08/20 02:11:07;;;;;;;7.97;4.53;;;;;;;13.13;100.00;101245.88;4969369;28;20510;-77
2021/08/20 02:13:32;;;;;;;6.97;4.03;;;;;;;13.22;100.00;101260.78;4955340;28;20039;-77
2021/08/20 02:16:04;;;;;;;8.10;4.50;;;;;;;13.21;100.00;101264.41;4984719;28;20129;-77
2021/08/20 02:18:29;;;;;;;13.55;4.43;;;;;;;13.22;100.00;101259.94;4970459;28;20037;-77
2021/08/20 02:20:58;;;;;;;11.00;4.78;;;;;;;13.22;100.00;101255.53;4969933;28;20042;-77
2021/08/20 02:23:26;;;;;;;8.93;4.43;;;;;;;13.23;100.00;101254.53;4975479;28;20531;-77
2021/08/20 02:25:52;;;;;;;10.13;4.70;;;;;;;13.22;100.00;101252.88;4956438;28;20120;-77
2021/08/20 02:28:18;;;;;;;8.98;4.80;;;;;;;13.24;100.00;101250.09;4971667;28;20046;-76
2021/08/20 02:30:44;;;;;;;16.35;5.10;;;;;;;13.24;100.00;101250.94;4970769;28;20502;-76
2021/08/20 02:33:10;;;;;;;10.15;4.47;;;;;;;13.23;100.00;101251.06;5002835;28;20038;-75
2021/08/20 02:35:36;;;;;;;10.32;5.05;;;;;;;13.23;100.00;101258.97;4965793;28;20045;-76
2021/08/20 02:38:02;;;;;;;9.27;4.65;;;;;;;13.30;100.00;101262.69;4976487;28;20038;-77
2021/08/20 02:40:32;;;;;;;9.90;4.45;;;;;;;13.34;100.00;101250.06;4959984;28;20038;-75
2021/08/20 02:42:57;;;;;;;10.57;4.95;;;;;;;13.42;100.00;101255.38;4988922;28;20057;-75
2021/08/20 02:45:23;;;;;;;11.10;4.60;;;;;;;13.42;100.00;101260.66;4981389;28;20042;-76
2021/08/20 02:47:57;;;;;;;9.70;4.40;;;;;;;13.39;100.00;101256.53;4970566;28;20071;-76
2021/08/20 02:50:23;;;;;;;12.98;4.30;;;;;;;13.36;100.00;101262.09;4970215;28;20042;-75
2021/08/20 02:52:48;;;;;;;17.33;4.38;;;;;;;13.31;100.00;101256.44;4960496;28;20045;-75
2021/08/20 02:55:14;;;;;;;7.25;4.03;;;;;;;13.32;100.00;101257.28;4974269;28;20119;-76
2021/08/20 02:57:42;;;;;;;8.93;4.25;;;;;;;13.32;100.00;101254.66;4958409;28;20611;-76
2021/08/20 03:00:08;;;;;;;8.50;4.47;;;;;;;13.34;100.00;101252.69;4982341;28;20045;-76
2021/08/20 03:02:34;;;;;;;8.82;4.07;;;;;;;13.36;100.00;101256.00;4981012;28;20407;-76
2021/08/20 03:05:00;;;;;;;7.53;4.00;;;;;;;13.34;100.00;101253.50;4988180;28;20124;-76
2021/08/20 03:07:45;;;;;;;7.10;4.97;;;;;;;13.31;100.00;101252.97;4970534;28;20416;-77
2021/08/20 03:10:11;;;;;;;10.70;5.22;;;;;;;13.27;100.00;101243.69;4955644;28;20033;-78
2021/08/20 03:12:38;;;;;;;13.02;4.95;;;;;;;13.23;100.00;101236.09;4977106;28;20038;-77
2021/08/20 03:15:05;;;;;;;9.38;4.65;;;;;;;13.23;100.00;101246.63;4982203;28;20041;-76
2021/08/20 03:17:35;;;;;;;9.93;4.22;;;;;;;13.23;100.00;101251.06;4968692;28;20121;-77
2021/08/20 03:20:09;;;;;;;14.93;4.78;;;;;;;13.19;100.00;101245.28;4968269;28;20138;-77
2021/08/20 03:22:39;;;;;;;15.88;5.10;;;;;;;13.21;100.00;101245.13;4968335;28;20031;-77
2021/08/20 03:25:23;;;;;;;8.27;4.05;;;;;;;13.20;100.00;101257.50;5074842;27;22294;-76
2021/08/20 03:28:04;;;;;;;10.35;5.40;;;;;;;13.21;100.00;101250.41;5055200;28;20655;-75
2021/08/20 03:30:49;;;;;;;10.27;4.60;;;;;;;13.21;100.00;101247.75;5065140;28;20384;-76
2021/08/20 03:33:26;;;;;;;11.20;5.10;;;;;;;13.24;100.00;101247.44;5062884;28;20145;-76
2021/08/20 03:36:14;;;;;;;10.07;4.85;;;;;;;13.24;100.00;101252.72;5103901;27;20384;-76
2021/08/20 03:38:52;;;;;;;9.38;4.75;;;;;;;13.19;100.00;101247.91;5118606;27;20387;-75
2021/08/20 03:41:28;;;;;;;15.80;5.50;;;;;;;13.18;100.00;101251.50;5126047;27;20123;-77
2021/08/20 03:44:10;;;;;;;9.70;5.10;;;;;;;13.19;100.00;101250.53;5063906;28;20381;-75
2021/08/20 03:46:53;;;;;;;10.95;5.50;;;;;;;13.19;100.00;101253.19;5061187;28;20396;-76
2021/08/20 03:49:33;;;;;;;13.65;5.75;;;;;;;13.25;100.00;101254.38;5085527;27;20890;-76
2021/08/20 03:52:09;;;;;;;13.88;6.25;;;;;;;13.33;100.00;101257.09;5084891;27;20134;-77
2021/08/20 03:54:50;;;;;;;15.27;6.13;;;;;;;13.37;100.00;101250.59;5046749;28;20392;-75
2021/08/20 03:57:30;;;;;;;13.05;6.10;;;;;;;13.44;100.00;101253.41;5101061;27;20910;-78
2021/08/20 04:00:07;;;;;;;12.10;5.90;;;;;;;13.42;100.00;101243.03;5109352;27;20131;-74
2021/08/20 04:02:50;;;;;;;10.82;5.78;;;;;;;13.34;100.00;101247.41;5042772;27;21022;-76
2021/08/20 04:05:27;;;;;;;11.02;5.78;;;;;;;13.39;100.00;101253.03;5103950;27;20129;-76
2021/08/20 04:08:19;;;;;;;12.02;5.60;;;;;;;13.45;100.00;101257.72;5064710;28;20387;-75
2021/08/20 04:11:17;;;;;;;13.93;6.57;;;;;;;13.44;100.00;101254.22;5117882;27;20335;-76
2021/08/20 04:14:05;;;;;;;15.80;6.75;;;;;;;13.42;100.00;101261.47;5105201;27;20341;-76
2021/08/20 04:16:44;;;;;;;14.52;6.97;;;;;;;13.43;100.00;101262.31;5063133;28;21192;-77
2021/08/20 04:19:21;;;;;;;13.40;7.28;;;;;;;13.39;100.00;101259.16;5073269;28;20382;-75
2021/08/20 04:21:57;;;;;;;17.45;7.50;;;;;;;13.38;100.00;101262.75;5084385;27;20521;-76
2021/08/20 04:24:36;;;;;;;17.38;7.07;;;;;;;13.39;100.00;101260.94;5069382;28;20905;-74
2021/08/20 04:27:31;;;;;;;15.73;6.63;;;;;;;13.40;100.00;101263.44;5107508;27;20387;-76
2021/08/20 04:30:13;;;;;;;14.82;6.93;;;;;;;13.46;100.00;101274.34;5104639;27;20753;-75
2021/08/20 04:33:21;;;;;;;11.45;5.90;;;;;;;13.39;100.00;101274.97;5104071;27;20885;-75
2021/08/20 04:36:17;;;;;;;11.48;5.82;;;;;;;13.36;100.00;101275.25;5104812;27;20388;-76
2021/08/20 04:39:29;;;;;;;10.45;5.25;;;;;;;13.36;100.00;101283.16;5064106;28;20400;-75
2021/08/20 04:42:17;;;;;;;11.43;5.20;;;;;;;13.32;100.00;101283.63;5068630;28;20395;-76
2021/08/20 04:45:23;;;;;;;10.23;5.72;;;;;;;13.28;100.00;101274.31;5081329;28;20462;-75
2021/08/20 04:48:20;;;;;;;8.38;4.97;;;;;;;13.35;100.00;101280.66;5062538;28;20138;-76
2021/08/20 04:51:20;;;;;;;8.27;4.90;;;;;;;13.25;100.00;101280.72;5105576;27;20893;-76
2021/08/20 04:54:11;;;;;;;7.57;4.75;;;;;;;13.21;100.00;101280.19;5053926;28;20380;-78
2021/08/20 04:56:51;;;;;;;8.63;4.78;;;;;;;13.23;100.00;101283.50;5105070;27;20389;-75
2021/08/20 04:59:41;;;;;;;9.05;4.70;;;;;;;13.18;100.00;101277.03;5093407;27;20407;-77
2021/08/20 05:02:36;;;;;;;7.65;4.28;;;;;;;13.18;100.00;101279.66;5126011;27;20336;-76
2021/08/20 05:05:27;;;;;;;7.07;4.25;;;;;;;13.18;100.00;101283.13;5105294;27;20399;-76
2021/08/20 05:08:24;;;;;;;8.10;4.18;;;;;;;13.21;100.00;101298.63;5113577;27;20363;-77
2021/08/20 05:11:28;;;;;;;11.52;4.80;;;;;;;13.22;100.00;101297.66;5114743;27;20329;-76
2021/08/20 05:14:19;;;;;;;7.25;4.00;;;;;;;13.23;100.00;101293.22;5126632;27;20340;-77
2021/08/20 05:17:25;;;;;;;10.18;4.97;;;;;;;13.24;100.00;101298.34;5127192;27;20394;-79
2021/08/20 05:20:15;;;;;;;9.20;4.65;;;;;;;13.21;100.00;101298.63;5097755;27;20741;-76
2021/08/20 05:23:11;;;;;;;6.78;4.55;;;;;;;13.25;100.00;101296.53;5136325;27;20383;-77
2021/08/20 05:26:03;;;;;;;8.75;4.40;;;;;;;13.26;100.00;101303.47;5087773;27;20497;-77
2021/08/20 05:28:53;;;;;;;7.38;4.57;;;;;;;13.28;100.00;101303.28;5082227;27;20362;-77
2021/08/20 05:31:31;;;;;;;10.18;5.40;;;;;;;13.26;100.00;101300.84;5105014;27;20406;-76
2021/08/20 05:34:07;;;;;;;9.02;4.57;;;;;;;13.32;100.00;101305.53;5055451;28;20381;-75
2021/08/20 05:36:43;;;;;;;8.02;4.70;;;;;;;13.29;100.00;101291.78;5076491;27;20141;-76
2021/08/20 05:39:20;;;;;;;8.55;4.40;;;;;;;13.31;100.00;101300.41;5072690;28;20131;-77
2021/08/20 05:41:56;;;;;;;8.52;4.30;;;;;;;13.33;100.00;101301.06;5056765;28;20495;-76
2021/08/20 05:44:33;;;;;;;7.95;4.97;;;;;;;13.32;100.00;101302.91;5052941;28;20150;-74
2021/08/20 05:47:10;;;;;;;8.40;4.78;;;;;;;13.33;100.00;101307.16;5070787;28;20147;-76
2021/08/20 05:49:46;;;;;;;7.88;4.45;;;;;;;13.31;100.00;101301.22;5103662;27;20483;-76
2021/08/20 05:52:28;;;;;;;7.05;4.25;;;;;;;13.38;100.00;101312.81;5061840;28;20746;-75
2021/08/20 05:55:07;;;;;;;6.13;3.67;;;;;;;13.43;100.00;101315.03;5097889;27;20381;-75
2021/08/20 05:57:43;;;;;;;7.13;4.65;;;;;;;13.46;100.00;101313.88;5111625;27;20390;-77
2021/08/20 06:00:19;;;;;;;7.47;4.30;;;;;;;13.51;100.00;101320.34;5066491;28;20137;-74
2021/08/20 06:03:06;;;;;;;8.63;4.18;;;;;;;13.56;100.00;101322.50;5084834;28;20414;-75
2021/08/20 06:05:43;;;;;;;5.45;4.22;;;;;;;13.54;100.00;101320.06;5085791;28;20378;-76
2021/08/20 06:08:20;;;;;;;9.05;4.53;;;;;;;13.56;100.00;101318.09;5084962;28;20142;-75
2021/08/20 06:10:57;;;;;;;9.13;4.25;;;;;;;13.57;100.00;101319.72;5126324;27;20139;-77
2021/08/20 06:13:34;;;;;;;6.03;3.60;;;;;;;13.59;100.00;101320.41;5103808;27;20139;-75
2021/08/20 06:16:10;;;;;;;5.82;3.70;;;;;;;13.59;100.00;101323.03;5065529;28;20507;-76
2021/08/20 06:18:47;;;;;;;5.22;3.65;;;;;;;13.62;100.00;101328.03;5064115;28;20131;-75
2021/08/20 06:21:23;;;;;;;6.55;3.67;;;;;;;13.66;100.00;101330.38;5085386;28;20142;-75
2021/08/20 06:24:00;;;;;;;4.18;3.25;;;;;;;13.69;100.00;101328.22;5106378;27;20139;-76
2021/08/20 06:26:37;;;;;;;3.90;3.05;;;;;;;13.72;100.00;101327.09;5065372;28;20137;-77
2021/08/20 06:29:15;;;;;;;4.28;3.10;;;;;;;13.72;100.00;101342.94;5064710;28;20384;-74
2021/08/20 06:31:51;;;;;;;4.68;2.90;;;;;;;13.69;100.00;101343.22;5086902;28;20382;-75
2021/08/20 06:34:30;;;;;;;4.60;2.40;;;;;;;13.71;100.00;101330.72;5095950;27;20137;-76
2021/08/20 06:37:06;;;;;;;4.32;2.70;;;;;;;13.67;100.00;101329.38;5107405;27;20373;-75
2021/08/20 06:39:43;;;;;;;3.13;2.67;;;;;;;13.69;100.00;101322.94;5066397;28;20138;-76
2021/08/20 06:42:21;;;;;;;4.72;2.90;;;;;;;13.78;100.00;101327.31;5087461;27;20602;-75
2021/08/20 06:44:57;;;;;;;3.70;2.88;;;;;;;13.82;100.00;101327.84;5110160;27;20334;-77
2021/08/20 06:47:38;;;;;;;4.88;3.10;;;;;;;13.78;100.00;101326.50;5106598;27;20443;-75
2021/08/20 06:50:15;;;;;;;5.22;3.20;;;;;;;13.80;100.00;101320.06;5106861;27;20379;-76
2021/08/20 06:52:52;;;;;;;4.57;3.40;;;;;;;13.86;100.00;101334.44;5066428;28;20141;-75
2021/08/20 06:55:32;;;;;;;5.13;3.38;;;;;;;13.90;100.00;101317.38;5106190;27;20586;-75
2021/08/20 06:58:08;;;;;;;5.30;3.53;;;;;;;14.04;100.00;101346.78;5107557;27;20387;-77
2021/08/20 07:00:45;;;;;;;5.15;3.40;;;;;;;14.11;100.00;101337.25;5065166;28;20130;-75
2021/08/20 07:03:22;;;;;;;4.85;3.53;;;;;;;14.14;100.00;101337.78;5084932;27;20617;-76
2021/08/20 07:05:58;;;;;;;5.63;3.45;;;;;;;14.19;100.00;101338.16;5065511;28;20131;-76
2021/08/20 07:08:35;;;;;;;6.00;3.75;;;;;;;14.37;100.00;101342.53;5065673;28;20158;-76
2021/08/20 07:11:11;;;;;;;5.85;3.70;;;;;;;14.32;100.00;101348.28;5106131;27;20139;-77
2021/08/20 07:13:52;;;;;;;5.90;3.53;;;;;;;14.28;100.00;101354.00;5106061;27;20404;-75
2021/08/20 07:16:28;;;;;;;4.70;3.42;;;;;;;14.26;100.00;101356.84;5065129;28;20388;-74
2021/08/20 07:19:04;;;;;;;6.75;3.70;;;;;;;14.12;100.00;101363.50;5065526;28;20524;-75
2021/08/20 07:21:41;;;;;;;5.82;3.55;;;;;;;14.06;100.00;101366.75;5064955;28;20135;-76
2021/08/20 07:24:18;;;;;;;5.53;3.42;;;;;;;13.97;100.00;101363.22;5105804;27;20137;-76
2021/08/20 07:26:54;;;;;;;4.78;3.30;;;;;;;14.01;100.00;101367.22;5065360;28;20139;-77
2021/08/20 07:29:31;;;;;;;5.55;3.92;;;;;;;13.94;100.00;101360.91;5064864;28;20130;-77
2021/08/20 07:32:08;;;;;;;6.15;4.03;;;;;;;13.92;100.00;101359.38;5070707;28;20130;-75
2021/08/20 07:34:44;;;;;;;7.25;4.15;;;;;;;13.96;100.00;101363.41;5107288;27;20133;-76
2021/08/20 07:37:21;;;;;;;10.23;4.03;;;;;;;14.06;100.00;101371.22;5108530;27;20495;-76
2021/08/20 07:39:57;;;;;;;6.50;4.20;;;;;;;14.19;100.00;101369.81;5088336;28;20133;-75
2021/08/20 07:42:34;;;;;;;6.30;3.72;;;;;;;14.24;100.00;101366.72;5068840;28;20464;-75
2021/08/20 07:45:11;;;;;;;5.03;3.45;;;;;;;14.26;100.00;101369.19;5060135;28;20088;-75
2021/08/20 07:47:50;;;;;;;4.20;3.13;;;;;;;14.26;100.00;101369.19;5106823;27;20151;-76
2021/08/20 07:50:27;;;;;;;7.10;3.80;;;;;;;14.20;100.00;101365.34;5064737;28;20394;-76
2021/08/20 07:53:03;;;;;;;7.35;3.63;;;;;;;14.25;100.00;101365.72;5065252;28;20626;-74
2021/08/20 07:55:42;;;;;;;4.78;3.55;;;;;;;14.31;100.00;101372.19;5105898;27;20364;-76
2021/08/20 07:58:19;;;;;;;3.95;2.83;;;;;;;14.38;100.00;101376.69;5101065;27;20394;-77
2021/08/20 08:00:55;;;;;;;5.95;3.30;;;;;;;14.45;100.00;101384.81;5085088;28;20382;-77
2021/08/20 08:03:40;;;;;;;3.28;2.78;;;;;;;14.46;100.00;101381.19;5044898;28;20388;-76
2021/08/20 08:06:35;;;;;;;4.03;3.05;;;;;;;14.50;100.00;101382.50;5182594;27;20387;-79
2021/08/20 08:09:29;;;;;;;5.90;3.00;;;;;;;14.48;100.00;101383.66;5188094;27;20376;-76
2021/08/20 08:12:20;;;;;;;5.70;3.30;;;;;;;14.37;100.00;101384.75;5085479;27;20389;-75
2021/08/20 08:15:11;;;;;;;4.20;3.35;;;;;;;14.36;100.00;101385.75;5085327;27;20481;-76
2021/08/20 08:18:13;;;;;;;4.25;2.70;;;;;;;14.39;100.00;101383.63;5134358;27;20352;-76
2021/08/20 08:21:02;;;;;;;4.60;3.03;;;;;;;14.49;100.00;101387.97;5085370;27;20401;-75
2021/08/20 08:24:01;;;;;;;5.50;3.53;;;;;;;14.53;100.00;101394.59;5127701;27;20535;-75
2021/08/20 08:26:51;;;;;;;5.70;3.17;;;;;;;14.65;100.00;101396.00;5085354;27;20401;-76
2021/08/20 08:29:40;;;;;;;5.57;2.97;;;;;;;14.86;100.00;101394.78;5084599;27;20886;-76
2021/08/20 08:32:33;;;;;;;4.57;2.70;;;;;;;14.96;100.00;101406.06;5182000;27;21143;-75
2021/08/20 08:35:24;;;;;;;3.75;2.70;;;;;;;15.05;100.00;101399.81;5085552;27;20394;-78
2021/08/20 08:38:16;;;;;;;4.60;3.22;;;;;;;15.06;100.00;101390.88;5126235;27;20328;-75
2021/08/20 08:41:12;;;;;;;5.90;3.22;;;;;;;15.13;100.00;101402.47;5086615;27;21229;-78
2021/08/20 08:44:02;;;;;;;3.63;3.00;;;;;;;15.31;100.00;101401.53;5085402;27;20886;-74
2021/08/20 08:46:51;;;;;;;4.68;3.60;;;;;;;15.37;100.00;101401.72;5084518;27;20394;-74
2021/08/20 08:49:31;;;;;;;6.45;3.60;;;;;;;15.42;100.00;101406.50;5104898;27;20418;-75
2021/08/20 08:52:08;;;;;;;7.45;3.50;;;;;;;15.33;100.00;101413.63;5105905;27;20374;-77
2021/08/20 08:54:45;;;;;;;7.10;3.55;;;;;;;15.31;100.00;101409.47;5094975;28;20143;-74
2021/08/20 08:57:24;;;;;;;7.20;4.05;;;;;;;15.29;100.00;101409.63;5066313;28;20387;-76
2021/08/20 08:59:59;;;;;;;4.55;3.53;;;;;;;15.30;100.00;101403.34;5064306;28;20403;-76
2021/08/20 09:02:36;;;;;;;4.80;3.92;;;;;;;15.39;100.00;101396.28;5055060;28;20145;-74
2021/08/20 09:05:13;;;;;;;6.35;4.47;;;;;;;15.42;100.00;101403.88;5085507;27;20149;-76
2021/08/20 09:07:51;;;;;;;7.15;4.78;;;;;;;15.57;100.00;101414.63;5105727;27;20133;-76
2021/08/20 09:10:28;;;;;;;4.88;4.18;;;;;;;15.69;100.00;101425.72;5085085;27;20390;-76
2021/08/20 09:13:04;;;;;;;8.55;4.63;;;;;;;15.71;100.00;101418.47;5064263;28;20049;-76
2021/08/20 09:15:41;;;;;;;8.05;4.50;;;;;;;15.80;100.00;101425.44;5025444;28;20127;-75
2021/08/20 09:18:22;;;;;;;6.95;4.25;;;;;;;16.00;100.00;101423.31;5085062;28;20140;-75
2021/08/20 09:20:59;;;;;;;7.70;5.28;;;;;;;16.12;100.00;101421.13;5065583;28;20375;-74
2021/08/20 09:23:37;;;;;;;8.75;5.63;;;;;;;16.24;100.00;101425.13;5079967;27;20134;-78
2021/08/20 09:26:23;;;;;;;8.45;5.63;;;;;;;16.48;100.00;101411.03;5105841;27;20372;-77
2021/08/20 09:29:11;;;;;;;9.98;6.28;;;;;;;16.55;100.00;101425.22;5103793;27;20388;-74
2021/08/20 09:31:52;;;;;;;8.50;5.60;;;;;;;16.69;100.00;101421.06;5101620;27;20397;-76
2021/08/20 09:34:29;;;;;;;8.60;6.35;;;;;;;16.80;100.00;101409.28;5064589;28;20753;-77
2021/08/20 09:37:12;;;;;;;9.57;6.32;;;;;;;16.85;100.00;101406.13;5065311;28;20376;-77
2021/08/20 09:39:57;;;;;;;13.02;6.40;;;;;;;17.00;100.00;101411.53;5064725;28;20900;-75
2021/08/20 09:42:36;;;;;;;11.50;7.22;;;;;;;16.96;100.00;101412.88;5065285;28;20134;-76
2021/08/20 09:45:19;;;;;;;10.32;7.43;;;;;;;17.03;100.00;101412.00;5038559;28;20749;-76
2021/08/20 09:47:56;;;;;;;9.43;7.13;;;;;;;16.98;100.00;101411.69;5106030;27;20376;-74
2021/08/20 09:50:42;;;;;;;13.25;8.13;;;;;;;16.77;100.00;101417.56;5106317;27;20143;-75
2021/08/20 09:53:19;;;;;;;12.30;8.60;;;;;;;16.49;100.00;101412.66;5062302;28;20928;-75
2021/08/20 09:55:56;;;;;;;11.52;8.70;;;;;;;16.30;100.00;101411.19;5065051;28;20600;-75
2021/08/20 09:58:33;;;;;;;12.52;8.68;;;;;;;16.19;100.00;101408.91;5085180;28;20138;-77
2021/08/20 10:01:10;;;;;;;13.73;9.20;;;;;;;16.11;100.00;101416.84;5105006;27;20381;-76
2021/08/20 10:04:06;;;;;;;12.02;9.20;;;;;;;16.30;100.00;101411.19;5076305;27;20399;-73
2021/08/20 10:06:42;;;;;;;15.20;9.82;;;;;;;16.51;100.00;101412.50;5064390;28;20395;-75
2021/08/20 10:09:20;;;;;;;12.25;9.80;;;;;;;16.54;100.00;101412.16;5065137;28;20137;-76
2021/08/20 10:12:00;;;;;;;19.42;10.73;;;;;;;16.40;100.00;101404.91;5067837;28;20395;-77
2021/08/20 10:14:36;;;;;;;13.98;10.02;;;;;;;16.30;100.00;101407.75;5067228;27;20401;-77
2021/08/20 10:17:02;;;;;;;16.02;10.90;;;;;;;16.18;100.00;101403.78;5026451;28;20045;-77
2021/08/20 10:19:28;;;;;;;18.52;11.63;;;;;;;16.13;100.00;101409.56;5058047;28;20040;-75
2021/08/20 10:21:53;;;;;;;20.67;11.38;;;;;;;16.11;100.00;101404.44;5048624;28;20041;-76
2021/08/20 10:24:19;;;;;;;21.88;11.73;;;;;;;15.98;100.00;101408.59;5014302;28;20033;-75
2021/08/20 10:26:49;;;;;;;24.08;11.60;;;;;;;15.90;100.00;101410.25;5047253;28;20067;-76
2021/08/20 10:29:21;;;;;;;20.05;12.32;;;;;;;15.93;100.00;101412.53;5032580;28;20538;-77
2021/08/20 10:31:47;;;;;;;19.15;11.30;;;;;;;16.01;100.00;101413.53;5034691;28;20033;-74
2021/08/20 10:34:33;;;;;;;20.15;12.98;;;;;;;16.16;100.00;101417.16;5042022;28;20029;-78
2021/08/20 10:37:12;;;;;;;17.70;11.85;;;;;;;16.31;100.00;101417.31;5042589;28;20069;-76
2021/08/20 10:39:46;;;;;;;19.58;12.88;;;;;;;16.37;100.00;101421.09;5049735;28;20069;-76
2021/08/20 10:42:36;;;;;;;18.27;12.10;;;;;;;16.40;100.00;101420.78;5029666;28;20045;-76
2021/08/20 10:45:13;;;;;;;19.08;12.57;;;;;;;16.48;100.00;101418.97;5103044;27;20369;-77
2021/08/20 10:48:15;;;;;;;18.90;13.15;;;;;;;16.77;100.00;101419.38;5064392;28;20138;-77
2021/08/20 10:50:53;;;;;;;22.23;14.43;;;;;;;17.26;100.00;101425.31;5065374;28;20736;-75
2021/08/20 10:53:47;;;;;;;19.17;14.52;;;;;;;17.66;100.00;101419.94;5063415;28;20384;-75
2021/08/20 10:56:33;;;;;;;21.35;16.00;;;;;;;18.09;100.00;101420.28;5064677;28;20392;-76
2021/08/20 10:59:43;;;;;;;18.38;14.18;;;;;;;18.16;100.00;101413.25;5117877;27;20407;-77
2021/08/20 11:02:20;;;;;;;19.05;13.90;;;;;;;18.47;100.00;101422.91;5065133;28;20130;-75
2021/08/20 11:04:59;;;;;;;16.35;12.68;;;;;;;18.83;100.00;101415.06;5064366;28;20139;-75
2021/08/20 11:07:36;;;;;;;17.80;12.63;;;;;;;19.10;100.00;101417.22;5065343;28;20896;-77
2021/08/20 11:10:16;;;;;;;15.48;12.07;;;;;;;19.10;100.00;101420.72;5107429;27;20412;-78
2021/08/20 11:12:53;;;;;;;16.27;11.77;;;;;;;19.12;100.00;101425.84;5106310;27;20767;-75
2021/08/20 11:15:30;;;;;;;15.30;11.82;;;;;;;18.92;100.00;101426.41;5086092;27;20145;-76
2021/08/20 11:18:06;;;;;;;16.65;11.00;;;;;;;18.67;100.00;101420.56;5108384;27;1214122;-75
2021/08/20 11:20:45;;;;;;;14.18;10.88;;;;;;;18.47;100.00;101418.41;5085623;27;20405;-77
2021/08/20 11:23:31;;;;;;;16.42;12.18;;;;;;;18.23;99.75;101418.66;5085597;28;20046;-75
2021/08/20 11:26:29;;;;;;;16.88;13.23;;;;;;;18.03;99.85;101423.66;5106932;27;20408;-76
2021/08/20 11:29:09;;;;;;;16.50;13.48;;;;;;;18.38;100.00;101419.50;5104937;27;20334;-76
2021/08/20 11:31:46;;;;;;;17.65;13.18;;;;;;;19.00;100.00;101428.97;5084915;27;20391;-77
2021/08/20 11:34:12;;;;;;;15.38;12.20;;;;;;;19.64;100.00;101432.75;5083733;28;20043;-77
2021/08/20 11:36:43;;;;;;;17.35;12.57;;;;;;;19.96;100.00;101434.09;5083785;28;20066;-77
2021/08/20 11:39:12;;;;;;;13.50;10.10;;;;;;;20.04;92.42;101427.81;5085432;28;20433;-75
2021/08/20 11:41:44;;;;;;;15.00;10.45;;;;;;;19.90;93.32;101429.53;5083370;28;20094;-76
2021/08/20 11:44:12;;;;;;;13.15;10.50;;;;;;;19.35;97.94;101431.03;5084929;28;20059;-75
2021/08/20 11:46:45;;;;;;;16.98;10.50;;;;;;;18.91;97.76;101430.09;5067563;28;20739;-75
2021/08/20 11:49:23;;;;;;;;;;;;;;;19.15;97.66;101426.28;5068477;28;20032;-76
2021/08/20 11:51:50;;;;;;;12.30;9.30;;;;;;;19.22;99.38;101429.84;5069336;28;19916;-75
2021/08/20 11:54:16;;;;;;;13.52;8.90;;;;;;;19.03;92.50;101431.25;5051344;28;20502;-77
2021/08/20 11:56:50;;;;;;;11.82;9.05;;;;;;;18.84;100.00;101423.88;5047360;28;20160;-75
2021/08/20 11:59:16;;;;;;;14.07;8.95;;;;;;;18.64;100.00;101419.06;5062362;28;20489;-76